sensor_id;sensor_type;location;lat;lon;timestamp;temperature;humidity
28171;DHT22;15458;53.346;-1.688;2023-07-09T00:00:49;17.40;99.90
28171;DHT22;15458;53.346;-1.688;2023-07-09T00:03:16;17.40;99.90
28171;DHT22;15458;53.346;-1.688;2023-07-09T00:05:43;17.40;99.90
28171;DHT22;15458;53.346;-1.688;2023-07-09T00:10:45;17.50;99.90
28171;DHT22;15458;53.346;-1.688;2023-07-09T00:13:11;17.50;99.90
28171;DHT22;15458;53.346;-1.688;2023-07-09T00:15:37;17.50;99.90
28171;DHT22;15458;53.346;-1.688;2023-07-09T00:18:02;17.50;99.90
28171;DHT22;15458;53.346;-1.688;2023-07-09T00:20:28;17.50;99.90
28171;DHT22;15458;53.346;-1.688;2023-07-09T00:22:54;17.50;99.90
28171;DHT22;15458;53.346;-1.688;2023-07-09T00:25:20;17.50;99.90
28171;DHT22;15458;53.346;-1.688;2023-07-09T00:27:46;17.50;99.90
28171;DHT22;15458;53.346;-1.688;2023-07-09T00:30:21;17.50;99.90
28171;DHT22;15458;53.346;-1.688;2023-07-09T00:32:50;17.50;99.90
28171;DHT22;15458;53.346;-1.688;2023-07-09T00:35:18;17.40;99.90
28171;DHT22;15458;53.346;-1.688;2023-07-09T00:37:44;17.50;99.90
28171;DHT22;15458;53.346;-1.688;2023-07-09T00:40:22;17.50;99.90
28171;DHT22;15458;53.346;-1.688;2023-07-09T00:42:51;17.50;99.90
28171;DHT22;15458;53.346;-1.688;2023-07-09T00:45:23;17.40;99.90
28171;DHT22;15458;53.346;-1.688;2023-07-09T00:50:29;17.40;99.90
28171;DHT22;15458;53.346;-1.688;2023-07-09T00:52:59;17.40;99.90
28171;DHT22;15458;53.346;-1.688;2023-07-09T00:55:33;17.30;99.90
28171;DHT22;15458;53.346;-1.688;2023-07-09T00:58:05;17.30;99.90
28171;DHT22;15458;53.346;-1.688;2023-07-09T01:00:39;17.30;99.90
28171;DHT22;15458;53.346;-1.688;2023-07-09T01:03:35;17.30;99.90
28171;DHT22;15458;53.346;-1.688;2023-07-09T01:06:01;17.30;99.90
28171;DHT22;15458;53.346;-1.688;2023-07-09T01:08:30;17.20;99.90
28171;DHT22;15458;53.346;-1.688;2023-07-09T01:10:58;17.20;99.90
28171;DHT22;15458;53.346;-1.688;2023-07-09T01:13:27;17.20;99.90
28171;DHT22;15458;53.346;-1.688;2023-07-09T01:15:54;17.20;99.90
28171;DHT22;15458;53.346;-1.688;2023-07-09T01:18:21;17.10;99.90
28171;DHT22;15458;53.346;-1.688;2023-07-09T01:20:47;17.10;99.90
28171;DHT22;15458;53.346;-1.688;2023-07-09T01:23:13;17.00;99.90
28171;DHT22;15458;53.346;-1.688;2023-07-09T01:25:46;17.10;99.90
28171;DHT22;15458;53.346;-1.688;2023-07-09T01:28:18;17.00;99.90
28171;DHT22;15458;53.346;-1.688;2023-07-09T01:30:45;17.00;99.90
28171;DHT22;15458;53.346;-1.688;2023-07-09T01:33:11;17.00;99.90
28171;DHT22;15458;53.346;-1.688;2023-07-09T01:35:38;17.00;99.90
28171;DHT22;15458;53.346;-1.688;2023-07-09T01:38:07;17.00;99.90
28171;DHT22;15458;53.346;-1.688;2023-07-09T01:40:33;17.00;99.90
28171;DHT22;15458;53.346;-1.688;2023-07-09T01:42:59;17.00;99.90
28171;DHT22;15458;53.346;-1.688;2023-07-09T01:45:25;17.00;99.90
28171;DHT22;15458;53.346;-1.688;2023-07-09T01:47:51;16.90;99.90
28171;DHT22;15458;53.346;-1.688;2023-07-09T01:50:19;16.90;99.90
28171;DHT22;15458;53.346;-1.688;2023-07-09T01:52:45;16.80;99.90
28171;DHT22;15458;53.346;-1.688;2023-07-09T01:55:13;16.80;99.90
28171;DHT22;15458;53.346;-1.688;2023-07-09T01:57:42;16.70;99.90
28171;DHT22;15458;53.346;-1.688;2023-07-09T02:00:12;16.80;99.90
28171;DHT22;15458;53.346;-1.688;2023-07-09T02:02:39;16.80;99.90
28171;DHT22;15458;53.346;-1.688;2023-07-09T02:05:09;16.80;99.90
28171;DHT22;15458;53.346;-1.688;2023-07-09T02:07:35;16.70;99.90
28171;DHT22;15458;53.346;-1.688;2023-07-09T02:10:01;16.80;99.90
28171;DHT22;15458;53.346;-1.688;2023-07-09T02:12:27;16.70;99.90
28171;DHT22;15458;53.346;-1.688;2023-07-09T02:14:53;16.70;99.90
28171;DHT22;15458;53.346;-1.688;2023-07-09T02:17:18;16.70;99.90
28171;DHT22;15458;53.346;-1.688;2023-07-09T02:19:44;16.70;99.90
28171;DHT22;15458;53.346;-1.688;2023-07-09T02:22:10;16.60;99.90
28171;DHT22;15458;53.346;-1.688;2023-07-09T02:24:36;16.60;99.90
28171;DHT22;15458;53.346;-1.688;2023-07-09T02:27:04;16.60;99.90
28171;DHT22;15458;53.346;-1.688;2023-07-09T02:29:31;16.60;99.90
28171;DHT22;15458;53.346;-1.688;2023-07-09T02:31:58;16.60;99.90
28171;DHT22;15458;53.346;-1.688;2023-07-09T02:34:28;16.50;99.90
28171;DHT22;15458;53.346;-1.688;2023-07-09T02:36:56;16.50;99.90
28171;DHT22;15458;53.346;-1.688;2023-07-09T02:39:23;16.50;99.90
28171;DHT22;15458;53.346;-1.688;2023-07-09T02:41:49;16.50;99.90
28171;DHT22;15458;53.346;-1.688;2023-07-09T02:44:16;16.50;99.90
28171;DHT22;15458;53.346;-1.688;2023-07-09T02:46:43;16.50;99.90
28171;DHT22;15458;53.346;-1.688;2023-07-09T02:49:11;16.40;99.90
28171;DHT22;15458;53.346;-1.688;2023-07-09T02:51:37;16.40;99.90
28171;DHT22;15458;53.346;-1.688;2023-07-09T02:54:04;16.40;99.90
28171;DHT22;15458;53.346;-1.688;2023-07-09T02:56:30;16.40;99.90
28171;DHT22;15458;53.346;-1.688;2023-07-09T02:58:56;16.30;99.90
28171;DHT22;15458;53.346;-1.688;2023-07-09T03:01:22;16.30;99.90
28171;DHT22;15458;53.346;-1.688;2023-07-09T03:03:54;16.20;99.90
28171;DHT22;15458;53.346;-1.688;2023-07-09T03:06:21;16.20;99.90
28171;DHT22;15458;53.346;-1.688;2023-07-09T03:08:47;16.20;99.90
28171;DHT22;15458;53.346;-1.688;2023-07-09T03:11:14;16.10;99.90
28171;DHT22;15458;53.346;-1.688;2023-07-09T03:13:40;16.10;99.90
28171;DHT22;15458;53.346;-1.688;2023-07-09T03:16:06;16.10;99.90
28171;DHT22;15458;53.346;-1.688;2023-07-09T03:18:32;16.10;99.90
28171;DHT22;15458;53.346;-1.688;2023-07-09T03:20:58;16.10;99.90
28171;DHT22;15458;53.346;-1.688;2023-07-09T03:23:24;16.10;99.90
28171;DHT22;15458;53.346;-1.688;2023-07-09T03:25:50;16.10;99.90
28171;DHT22;15458;53.346;-1.688;2023-07-09T03:28:15;16.10;99.90
28171;DHT22;15458;53.346;-1.688;2023-07-09T03:30:42;16.10;99.90
28171;DHT22;15458;53.346;-1.688;2023-07-09T03:33:09;16.10;99.90
28171;DHT22;15458;53.346;-1.688;2023-07-09T03:35:35;16.00;99.90
28171;DHT22;15458;53.346;-1.688;2023-07-09T03:38:02;16.00;99.90
28171;DHT22;15458;53.346;-1.688;2023-07-09T03:40:27;16.00;99.90
28171;DHT22;15458;53.346;-1.688;2023-07-09T03:42:53;16.00;99.90
28171;DHT22;15458;53.346;-1.688;2023-07-09T03:45:19;16.00;99.90
28171;DHT22;15458;53.346;-1.688;2023-07-09T03:47:47;16.00;99.90
28171;DHT22;15458;53.346;-1.688;2023-07-09T03:50:13;16.00;99.90
28171;DHT22;15458;53.346;-1.688;2023-07-09T03:52:39;16.00;99.90
28171;DHT22;15458;53.346;-1.688;2023-07-09T03:55:05;16.00;99.90
28171;DHT22;15458;53.346;-1.688;2023-07-09T03:57:31;15.90;99.90
28171;DHT22;15458;53.346;-1.688;2023-07-09T03:59:57;16.00;99.90
28171;DHT22;15458;53.346;-1.688;2023-07-09T04:02:23;16.00;99.90
28171;DHT22;15458;53.346;-1.688;2023-07-09T04:04:48;16.00;99.90
28171;DHT22;15458;53.346;-1.688;2023-07-09T04:07:15;16.00;99.90
28171;DHT22;15458;53.346;-1.688;2023-07-09T04:09:41;16.00;99.90
28171;DHT22;15458;53.346;-1.688;2023-07-09T04:12:07;15.90;99.90
28171;DHT22;15458;53.346;-1.688;2023-07-09T04:14:34;15.90;99.90
28171;DHT22;15458;53.346;-1.688;2023-07-09T04:16:59;15.90;99.90
28171;DHT22;15458;53.346;-1.688;2023-07-09T04:19:25;15.80;99.90
28171;DHT22;15458;53.346;-1.688;2023-07-09T04:21:51;15.80;99.90
28171;DHT22;15458;53.346;-1.688;2023-07-09T04:24:18;15.80;99.90
28171;DHT22;15458;53.346;-1.688;2023-07-09T04:26:45;15.80;99.90
28171;DHT22;15458;53.346;-1.688;2023-07-09T04:29:11;15.80;99.90
28171;DHT22;15458;53.346;-1.688;2023-07-09T04:31:37;15.80;99.90
28171;DHT22;15458;53.346;-1.688;2023-07-09T04:34:04;15.80;99.90
28171;DHT22;15458;53.346;-1.688;2023-07-09T04:36:29;15.80;99.90
28171;DHT22;15458;53.346;-1.688;2023-07-09T04:38:55;15.70;99.90
28171;DHT22;15458;53.346;-1.688;2023-07-09T04:41:21;15.70;99.90
28171;DHT22;15458;53.346;-1.688;2023-07-09T04:43:46;15.70;99.90
28171;DHT22;15458;53.346;-1.688;2023-07-09T04:46:12;15.70;99.90
28171;DHT22;15458;53.346;-1.688;2023-07-09T04:48:38;15.70;99.90
28171;DHT22;15458;53.346;-1.688;2023-07-09T04:51:04;15.60;99.90
28171;DHT22;15458;53.346;-1.688;2023-07-09T04:53:30;15.70;99.90
28171;DHT22;15458;53.346;-1.688;2023-07-09T04:55:56;15.70;99.90
28171;DHT22;15458;53.346;-1.688;2023-07-09T04:58:23;15.60;99.90
28171;DHT22;15458;53.346;-1.688;2023-07-09T05:00:49;15.70;99.90
28171;DHT22;15458;53.346;-1.688;2023-07-09T05:03:17;15.60;99.90
28171;DHT22;15458;53.346;-1.688;2023-07-09T05:05:44;15.70;99.90
28171;DHT22;15458;53.346;-1.688;2023-07-09T05:08:11;15.70;99.90
28171;DHT22;15458;53.346;-1.688;2023-07-09T05:10:44;15.70;99.90
28171;DHT22;15458;53.346;-1.688;2023-07-09T05:13:10;15.70;99.90
28171;DHT22;15458;53.346;-1.688;2023-07-09T05:15:40;15.70;99.90
28171;DHT22;15458;53.346;-1.688;2023-07-09T05:18:09;15.70;99.90
28171;DHT22;15458;53.346;-1.688;2023-07-09T05:20:35;15.70;99.90
28171;DHT22;15458;53.346;-1.688;2023-07-09T05:23:01;15.70;99.90
28171;DHT22;15458;53.346;-1.688;2023-07-09T05:25:26;15.70;99.90
28171;DHT22;15458;53.346;-1.688;2023-07-09T05:27:52;15.70;99.90
28171;DHT22;15458;53.346;-1.688;2023-07-09T05:30:19;15.70;99.90
28171;DHT22;15458;53.346;-1.688;2023-07-09T05:32:45;15.70;99.90
28171;DHT22;15458;53.346;-1.688;2023-07-09T05:35:11;15.70;99.90
28171;DHT22;15458;53.346;-1.688;2023-07-09T05:37:37;15.70;99.90
28171;DHT22;15458;53.346;-1.688;2023-07-09T05:40:07;15.80;99.90
28171;DHT22;15458;53.346;-1.688;2023-07-09T05:42:33;15.80;99.90
28171;DHT22;15458;53.346;-1.688;2023-07-09T05:44:59;15.80;99.90
28171;DHT22;15458;53.346;-1.688;2023-07-09T05:47:25;15.80;99.90
28171;DHT22;15458;53.346;-1.688;2023-07-09T05:49:52;15.80;99.90
28171;DHT22;15458;53.346;-1.688;2023-07-09T05:52:19;15.80;99.90
28171;DHT22;15458;53.346;-1.688;2023-07-09T05:54:45;15.80;99.90
28171;DHT22;15458;53.346;-1.688;2023-07-09T05:57:11;15.90;99.90
28171;DHT22;15458;53.346;-1.688;2023-07-09T05:59:40;15.90;99.90
28171;DHT22;15458;53.346;-1.688;2023-07-09T06:02:18;15.90;99.90
28171;DHT22;15458;53.346;-1.688;2023-07-09T06:04:47;15.90;99.90
28171;DHT22;15458;53.346;-1.688;2023-07-09T06:07:17;15.90;99.90
28171;DHT22;15458;53.346;-1.688;2023-07-09T06:09:46;16.00;99.90
28171;DHT22;15458;53.346;-1.688;2023-07-09T06:12:14;15.90;99.90
28171;DHT22;15458;53.346;-1.688;2023-07-09T06:14:40;15.90;99.90
28171;DHT22;15458;53.346;-1.688;2023-07-09T06:17:08;15.90;99.90
28171;DHT22;15458;53.346;-1.688;2023-07-09T06:19:34;15.90;99.90
28171;DHT22;15458;53.346;-1.688;2023-07-09T06:22:00;16.00;99.90
28171;DHT22;15458;53.346;-1.688;2023-07-09T06:24:26;16.00;99.90
28171;DHT22;15458;53.346;-1.688;2023-07-09T06:26:52;16.00;99.90
28171;DHT22;15458;53.346;-1.688;2023-07-09T06:29:18;16.00;99.90
28171;DHT22;15458;53.346;-1.688;2023-07-09T06:31:44;16.00;99.90
28171;DHT22;15458;53.346;-1.688;2023-07-09T06:34:09;16.10;99.90
28171;DHT22;15458;53.346;-1.688;2023-07-09T06:36:36;16.10;99.90
28171;DHT22;15458;53.346;-1.688;2023-07-09T06:39:02;16.20;99.90
28171;DHT22;15458;53.346;-1.688;2023-07-09T06:41:28;16.20;99.90
28171;DHT22;15458;53.346;-1.688;2023-07-09T06:43:54;16.30;99.90
28171;DHT22;15458;53.346;-1.688;2023-07-09T06:46:20;16.40;99.90
28171;DHT22;15458;53.346;-1.688;2023-07-09T06:48:46;16.40;99.90
28171;DHT22;15458;53.346;-1.688;2023-07-09T06:51:12;16.50;99.90
28171;DHT22;15458;53.346;-1.688;2023-07-09T06:53:39;16.60;99.90
28171;DHT22;15458;53.346;-1.688;2023-07-09T06:56:05;16.60;99.90
28171;DHT22;15458;53.346;-1.688;2023-07-09T06:58:36;16.70;99.90
28171;DHT22;15458;53.346;-1.688;2023-07-09T07:01:03;16.70;99.90
28171;DHT22;15458;53.346;-1.688;2023-07-09T07:03:30;16.70;99.90
28171;DHT22;15458;53.346;-1.688;2023-07-09T07:05:56;16.80;99.90
28171;DHT22;15458;53.346;-1.688;2023-07-09T07:08:24;16.90;99.90
28171;DHT22;15458;53.346;-1.688;2023-07-09T07:10:54;16.90;99.90
28171;DHT22;15458;53.346;-1.688;2023-07-09T07:13:31;17.00;99.90
28171;DHT22;15458;53.346;-1.688;2023-07-09T07:15:57;17.10;99.90
28171;DHT22;15458;53.346;-1.688;2023-07-09T07:18:22;17.20;99.90
28171;DHT22;15458;53.346;-1.688;2023-07-09T07:20:49;17.30;99.90
28171;DHT22;15458;53.346;-1.688;2023-07-09T07:23:15;17.40;99.90
28171;DHT22;15458;53.346;-1.688;2023-07-09T07:25:41;17.50;99.90
28171;DHT22;15458;53.346;-1.688;2023-07-09T07:28:07;17.60;99.90
28171;DHT22;15458;53.346;-1.688;2023-07-09T07:30:34;17.60;99.90
28171;DHT22;15458;53.346;-1.688;2023-07-09T07:33:00;17.70;99.90
28171;DHT22;15458;53.346;-1.688;2023-07-09T07:35:25;17.70;99.90
28171;DHT22;15458;53.346;-1.688;2023-07-09T07:37:51;17.70;99.90
28171;DHT22;15458;53.346;-1.688;2023-07-09T07:40:17;17.70;99.90
28171;DHT22;15458;53.346;-1.688;2023-07-09T07:42:42;17.70;99.90
28171;DHT22;15458;53.346;-1.688;2023-07-09T07:45:09;17.70;99.90
28171;DHT22;15458;53.346;-1.688;2023-07-09T07:47:42;17.60;99.90
28171;DHT22;15458;53.346;-1.688;2023-07-09T07:50:09;17.70;99.90
28171;DHT22;15458;53.346;-1.688;2023-07-09T07:52:35;17.60;99.90
28171;DHT22;15458;53.346;-1.688;2023-07-09T07:55:04;17.60;99.90
28171;DHT22;15458;53.346;-1.688;2023-07-09T07:57:30;17.60;99.90
28171;DHT22;15458;53.346;-1.688;2023-07-09T07:59:56;17.60;99.90
28171;DHT22;15458;53.346;-1.688;2023-07-09T08:02:23;17.60;99.90
28171;DHT22;15458;53.346;-1.688;2023-07-09T08:04:49;17.60;99.90
28171;DHT22;15458;53.346;-1.688;2023-07-09T08:07:17;17.60;99.90
28171;DHT22;15458;53.346;-1.688;2023-07-09T08:09:44;17.60;99.90
28171;DHT22;15458;53.346;-1.688;2023-07-09T08:12:11;17.70;99.90
28171;DHT22;15458;53.346;-1.688;2023-07-09T08:14:38;17.70;99.90
28171;DHT22;15458;53.346;-1.688;2023-07-09T08:17:05;17.70;99.90
28171;DHT22;15458;53.346;-1.688;2023-07-09T08:19:31;17.70;99.90
28171;DHT22;15458;53.346;-1.688;2023-07-09T08:21:57;17.70;99.90
28171;DHT22;15458;53.346;-1.688;2023-07-09T08:24:23;17.70;99.90
28171;DHT22;15458;53.346;-1.688;2023-07-09T08:26:48;17.60;99.90
28171;DHT22;15458;53.346;-1.688;2023-07-09T08:29:14;17.60;99.90
28171;DHT22;15458;53.346;-1.688;2023-07-09T08:31:40;17.60;99.90
28171;DHT22;15458;53.346;-1.688;2023-07-09T08:34:07;17.60;99.90
28171;DHT22;15458;53.346;-1.688;2023-07-09T08:36:33;17.60;99.90
28171;DHT22;15458;53.346;-1.688;2023-07-09T08:39:03;17.60;99.90
28171;DHT22;15458;53.346;-1.688;2023-07-09T08:45:00;17.70;99.90
28171;DHT22;15458;53.346;-1.688;2023-07-09T08:47:43;17.70;99.90
28171;DHT22;15458;53.346;-1.688;2023-07-09T08:50:21;17.70;99.90
28171;DHT22;15458;53.346;-1.688;2023-07-09T08:52:52;17.60;99.90
28171;DHT22;15458;53.346;-1.688;2023-07-09T08:55:21;17.70;99.90
28171;DHT22;15458;53.346;-1.688;2023-07-09T08:57:58;17.70;99.90
28171;DHT22;15458;53.346;-1.688;2023-07-09T09:00:52;17.70;99.90
28171;DHT22;15458;53.346;-1.688;2023-07-09T09:05:55;17.70;99.90
28171;DHT22;15458;53.346;-1.688;2023-07-09T09:14:15;17.80;99.90
28171;DHT22;15458;53.346;-1.688;2023-07-09T09:16:45;17.80;99.90
28171;DHT22;15458;53.346;-1.688;2023-07-09T09:19:25;17.90;99.90
28171;DHT22;15458;53.346;-1.688;2023-07-09T09:21:54;17.90;99.90
28171;DHT22;15458;53.346;-1.688;2023-07-09T09:24:30;17.90;99.90
28171;DHT22;15458;53.346;-1.688;2023-07-09T09:26:58;18.00;99.90
28171;DHT22;15458;53.346;-1.688;2023-07-09T09:29:25;18.00;99.90
28171;DHT22;15458;53.346;-1.688;2023-07-09T09:31:54;18.00;99.90
28171;DHT22;15458;53.346;-1.688;2023-07-09T09:34:29;18.10;99.90
28171;DHT22;15458;53.346;-1.688;2023-07-09T09:36:56;18.10;99.90
28171;DHT22;15458;53.346;-1.688;2023-07-09T09:39:24;18.10;99.90
28171;DHT22;15458;53.346;-1.688;2023-07-09T09:42:01;18.10;99.90
28171;DHT22;15458;53.346;-1.688;2023-07-09T09:44:28;18.20;99.90
28171;DHT22;15458;53.346;-1.688;2023-07-09T09:46:59;18.20;99.90
28171;DHT22;15458;53.346;-1.688;2023-07-09T09:49:24;18.20;99.90
28171;DHT22;15458;53.346;-1.688;2023-07-09T09:51:50;18.30;99.90
28171;DHT22;15458;53.346;-1.688;2023-07-09T09:54:19;18.30;99.90
28171;DHT22;15458;53.346;-1.688;2023-07-09T09:56:48;18.30;99.90
28171;DHT22;15458;53.346;-1.688;2023-07-09T09:59:25;18.40;99.90
28171;DHT22;15458;53.346;-1.688;2023-07-09T10:01:59;18.50;99.90
28171;DHT22;15458;53.346;-1.688;2023-07-09T10:04:28;18.60;99.90
28171;DHT22;15458;53.346;-1.688;2023-07-09T10:06:57;18.60;99.90
28171;DHT22;15458;53.346;-1.688;2023-07-09T10:09:49;18.70;99.90
28171;DHT22;15458;53.346;-1.688;2023-07-09T10:12:32;18.80;99.90
28171;DHT22;15458;53.346;-1.688;2023-07-09T10:20:41;19.50;99.90
28171;DHT22;15458;53.346;-1.688;2023-07-09T10:25:53;20.10;99.90
28171;DHT22;15458;53.346;-1.688;2023-07-09T10:31:07;20.70;99.90
28171;DHT22;15458;53.346;-1.688;2023-07-09T10:33:58;20.90;99.90
28171;DHT22;15458;53.346;-1.688;2023-07-09T10:36:48;21.20;99.90
28171;DHT22;15458;53.346;-1.688;2023-07-09T10:39:31;21.40;98.80
28171;DHT22;15458;53.346;-1.688;2023-07-09T10:41:59;21.70;97.50
28171;DHT22;15458;53.346;-1.688;2023-07-09T10:44:35;21.70;96.20
28171;DHT22;15458;53.346;-1.688;2023-07-09T10:47:13;21.80;94.90
28171;DHT22;15458;53.346;-1.688;2023-07-09T10:49:43;21.90;94.10
28171;DHT22;15458;53.346;-1.688;2023-07-09T10:55:46;22.20;93.20
28171;DHT22;15458;53.346;-1.688;2023-07-09T10:58:32;22.40;90.60
28171;DHT22;15458;53.346;-1.688;2023-07-09T11:00:59;22.50;90.10
28171;DHT22;15458;53.346;-1.688;2023-07-09T11:05:53;22.80;88.40
28171;DHT22;15458;53.346;-1.688;2023-07-09T11:08:36;22.90;88.40
28171;DHT22;15458;53.346;-1.688;2023-07-09T11:11:10;23.00;86.10
28171;DHT22;15458;53.346;-1.688;2023-07-09T11:13:50;22.90;84.20
28171;DHT22;15458;53.346;-1.688;2023-07-09T11:16:25;23.00;83.80
28171;DHT22;15458;53.346;-1.688;2023-07-09T11:18:58;23.00;81.20
28171;DHT22;15458;53.346;-1.688;2023-07-09T11:21:25;23.00;80.80
28171;DHT22;15458;53.346;-1.688;2023-07-09T11:24:00;23.10;80.60
28171;DHT22;15458;53.346;-1.688;2023-07-09T11:26:35;23.10;80.50
28171;DHT22;15458;53.346;-1.688;2023-07-09T11:31:39;23.50;79.20
28171;DHT22;15458;53.346;-1.688;2023-07-09T11:36:57;23.70;78.40
28171;DHT22;15458;53.346;-1.688;2023-07-09T11:42:25;24.10;77.20
28171;DHT22;15458;53.346;-1.688;2023-07-09T11:45:28;24.20;75.40
28171;DHT22;15458;53.346;-1.688;2023-07-09T11:50:48;24.10;73.30
28171;DHT22;15458;53.346;-1.688;2023-07-09T11:53:33;24.20;73.30
28171;DHT22;15458;53.346;-1.688;2023-07-09T11:56:00;24.40;74.20
28171;DHT22;15458;53.346;-1.688;2023-07-09T11:58:26;24.60;74.00
28171;DHT22;15458;53.346;-1.688;2023-07-09T12:00:57;24.60;73.20
28171;DHT22;15458;53.346;-1.688;2023-07-09T12:03:34;24.40;72.10
28171;DHT22;15458;53.346;-1.688;2023-07-09T12:06:04;24.30;71.60
28171;DHT22;15458;53.346;-1.688;2023-07-09T12:08:39;24.00;72.30
28171;DHT22;15458;53.346;-1.688;2023-07-09T12:11:16;24.20;73.10
28171;DHT22;15458;53.346;-1.688;2023-07-09T12:13:43;24.30;73.10
28171;DHT22;15458;53.346;-1.688;2023-07-09T12:16:38;24.40;72.80
28171;DHT22;15458;53.346;-1.688;2023-07-09T12:19:04;24.50;72.60
28171;DHT22;15458;53.346;-1.688;2023-07-09T12:21:38;24.70;71.40
28171;DHT22;15458;53.346;-1.688;2023-07-09T12:24:24;24.80;71.50
28171;DHT22;15458;53.346;-1.688;2023-07-09T12:26:54;24.90;70.80
28171;DHT22;15458;53.346;-1.688;2023-07-09T12:29:27;25.00;70.00
28171;DHT22;15458;53.346;-1.688;2023-07-09T12:31:59;25.20;70.20
28171;DHT22;15458;53.346;-1.688;2023-07-09T12:34:30;25.30;68.20
28171;DHT22;15458;53.346;-1.688;2023-07-09T12:36:56;25.50;67.90
28171;DHT22;15458;53.346;-1.688;2023-07-09T12:39:26;25.40;67.80
28171;DHT22;15458;53.346;-1.688;2023-07-09T12:41:58;25.50;67.90
28171;DHT22;15458;53.346;-1.688;2023-07-09T12:44:31;25.70;67.80
28171;DHT22;15458;53.346;-1.688;2023-07-09T12:46:59;25.90;67.40
28171;DHT22;15458;53.346;-1.688;2023-07-09T12:49:31;26.00;65.60
28171;DHT22;15458;53.346;-1.688;2023-07-09T12:52:09;26.00;64.20
28171;DHT22;15458;53.346;-1.688;2023-07-09T12:54:34;25.90;64.10
28171;DHT22;15458;53.346;-1.688;2023-07-09T12:57:00;25.80;64.30
28171;DHT22;15458;53.346;-1.688;2023-07-09T12:59:39;25.80;64.60
28171;DHT22;15458;53.346;-1.688;2023-07-09T13:04:43;25.80;63.60
28171;DHT22;15458;53.346;-1.688;2023-07-09T13:07:39;25.70;63.40
28171;DHT22;15458;53.346;-1.688;2023-07-09T13:10:17;25.80;64.20
28171;DHT22;15458;53.346;-1.688;2023-07-09T13:12:49;26.10;64.20
28171;DHT22;15458;53.346;-1.688;2023-07-09T13:15:39;26.20;63.70
28171;DHT22;15458;53.346;-1.688;2023-07-09T13:18:08;26.20;62.90
28171;DHT22;15458;53.346;-1.688;2023-07-09T13:20:38;25.90;63.00
28171;DHT22;15458;53.346;-1.688;2023-07-09T13:23:10;25.70;63.60
28171;DHT22;15458;53.346;-1.688;2023-07-09T13:25:38;25.60;63.80
28171;DHT22;15458;53.346;-1.688;2023-07-09T13:28:04;25.70;64.00
28171;DHT22;15458;53.346;-1.688;2023-07-09T13:30:30;25.80;64.30
28171;DHT22;15458;53.346;-1.688;2023-07-09T13:32:57;26.00;64.00
28171;DHT22;15458;53.346;-1.688;2023-07-09T13:35:22;26.10;63.30
28171;DHT22;15458;53.346;-1.688;2023-07-09T13:37:48;26.00;63.20
28171;DHT22;15458;53.346;-1.688;2023-07-09T13:40:15;25.90;63.00
28171;DHT22;15458;53.346;-1.688;2023-07-09T13:42:42;25.70;62.80
28171;DHT22;15458;53.346;-1.688;2023-07-09T13:45:24;25.70;63.10
28171;DHT22;15458;53.346;-1.688;2023-07-09T13:47:51;25.70;62.90
28171;DHT22;15458;53.346;-1.688;2023-07-09T13:50:20;25.70;63.00
28171;DHT22;15458;53.346;-1.688;2023-07-09T13:52:46;25.70;63.30
28171;DHT22;15458;53.346;-1.688;2023-07-09T13:55:23;25.80;63.10
28171;DHT22;15458;53.346;-1.688;2023-07-09T13:57:50;26.00;63.20
28171;DHT22;15458;53.346;-1.688;2023-07-09T14:00:17;26.30;62.40
28171;DHT22;15458;53.346;-1.688;2023-07-09T14:02:43;26.30;61.80
28171;DHT22;15458;53.346;-1.688;2023-07-09T14:05:12;26.50;62.20
28171;DHT22;15458;53.346;-1.688;2023-07-09T14:07:40;26.60;61.50
28171;DHT22;15458;53.346;-1.688;2023-07-09T14:10:14;26.60;60.50
28171;DHT22;15458;53.346;-1.688;2023-07-09T14:12:45;26.30;59.70
28171;DHT22;15458;53.346;-1.688;2023-07-09T14:15:20;26.30;60.20
28171;DHT22;15458;53.346;-1.688;2023-07-09T14:17:47;26.40;60.10
28171;DHT22;15458;53.346;-1.688;2023-07-09T14:20:14;26.30;59.90
28171;DHT22;15458;53.346;-1.688;2023-07-09T14:22:41;26.40;60.40
28171;DHT22;15458;53.346;-1.688;2023-07-09T14:25:28;26.40;59.80
28171;DHT22;15458;53.346;-1.688;2023-07-09T14:27:55;26.20;60.20
28171;DHT22;15458;53.346;-1.688;2023-07-09T14:30:23;26.10;60.60
28171;DHT22;15458;53.346;-1.688;2023-07-09T14:32:50;26.00;60.10
28171;DHT22;15458;53.346;-1.688;2023-07-09T14:35:25;26.00;60.80
28171;DHT22;15458;53.346;-1.688;2023-07-09T14:37:53;26.00;61.90
28171;DHT22;15458;53.346;-1.688;2023-07-09T14:40:21;26.10;61.20
28171;DHT22;15458;53.346;-1.688;2023-07-09T14:42:48;26.30;60.70
28171;DHT22;15458;53.346;-1.688;2023-07-09T14:45:26;26.40;59.80
28171;DHT22;15458;53.346;-1.688;2023-07-09T14:48:15;26.50;59.80
28171;DHT22;15458;53.346;-1.688;2023-07-09T14:50:41;26.70;59.90
28171;DHT22;15458;53.346;-1.688;2023-07-09T14:53:20;26.80;59.80
28171;DHT22;15458;53.346;-1.688;2023-07-09T14:55:47;27.00;59.60
28171;DHT22;15458;53.346;-1.688;2023-07-09T14:58:25;26.90;58.40
28171;DHT22;15458;53.346;-1.688;2023-07-09T15:00:52;27.10;58.60
28171;DHT22;15458;53.346;-1.688;2023-07-09T15:03:23;27.20;57.90
28171;DHT22;15458;53.346;-1.688;2023-07-09T15:05:51;27.00;57.50
28171;DHT22;15458;53.346;-1.688;2023-07-09T15:08:26;26.80;57.70
28171;DHT22;15458;53.346;-1.688;2023-07-09T15:10:53;26.60;58.60
28171;DHT22;15458;53.346;-1.688;2023-07-09T15:15:51;26.10;59.00
28171;DHT22;15458;53.346;-1.688;2023-07-09T15:18:20;25.80;59.20
28171;DHT22;15458;53.346;-1.688;2023-07-09T15:20:56;25.50;59.20
28171;DHT22;15458;53.346;-1.688;2023-07-09T15:23:22;25.30;59.90
28171;DHT22;15458;53.346;-1.688;2023-07-09T15:25:48;25.40;60.50
28171;DHT22;15458;53.346;-1.688;2023-07-09T15:28:14;25.60;60.90
28171;DHT22;15458;53.346;-1.688;2023-07-09T15:30:40;25.80;60.90
28171;DHT22;15458;53.346;-1.688;2023-07-09T15:33:16;25.80;60.50
28171;DHT22;15458;53.346;-1.688;2023-07-09T15:35:43;25.70;59.70
28171;DHT22;15458;53.346;-1.688;2023-07-09T15:38:31;25.70;60.10
28171;DHT22;15458;53.346;-1.688;2023-07-09T15:40:57;25.80;60.10
28171;DHT22;15458;53.346;-1.688;2023-07-09T15:43:26;25.60;60.00
28171;DHT22;15458;53.346;-1.688;2023-07-09T15:45:54;25.40;61.20
28171;DHT22;15458;53.346;-1.688;2023-07-09T15:48:32;25.30;60.90
28171;DHT22;15458;53.346;-1.688;2023-07-09T15:50:59;25.30;61.20
28171;DHT22;15458;53.346;-1.688;2023-07-09T15:53:26;25.40;61.50
28171;DHT22;15458;53.346;-1.688;2023-07-09T15:55:57;25.30;61.50
28171;DHT22;15458;53.346;-1.688;2023-07-09T15:58:29;25.10;61.70
28171;DHT22;15458;53.346;-1.688;2023-07-09T16:00:56;24.90;61.80
28171;DHT22;15458;53.346;-1.688;2023-07-09T16:03:24;24.70;62.10
28171;DHT22;15458;53.346;-1.688;2023-07-09T16:05:50;24.50;62.80
28171;DHT22;15458;53.346;-1.688;2023-07-09T16:08:16;24.20;63.10
28171;DHT22;15458;53.346;-1.688;2023-07-09T16:10:42;24.00;63.70
28171;DHT22;15458;53.346;-1.688;2023-07-09T16:13:27;23.80;64.20
28171;DHT22;15458;53.346;-1.688;2023-07-09T16:15:56;23.70;65.00
28171;DHT22;15458;53.346;-1.688;2023-07-09T16:18:22;23.60;65.20